sensor_id;sensor_type;location;lat;lon;timestamp;P1;durP1;ratioP1;P2;durP2;ratioP2
67278;SDS011;54193;53.746;10.058;2022-09-03T00:01:42;2.73;;;1.30;;
67278;SDS011;54193;53.746;10.058;2022-09-03T00:04:52;3.65;;;1.30;;
67278;SDS011;54193;53.746;10.058;2022-09-03T00:07:50;2.92;;;1.38;;
67278;SDS011;54193;53.746;10.058;2022-09-03T00:10:50;3.08;;;1.40;;
67278;SDS011;54193;53.746;10.058;2022-09-03T00:17:01;3.20;;;1.50;;
67278;SDS011;54193;53.746;10.058;2022-09-03T00:23:20;3.28;;;1.60;;
67278;SDS011;54193;53.746;10.058;2022-09-03T00:29:08;3.25;;;1.25;;
67278;SDS011;54193;53.746;10.058;2022-09-03T00:32:00;3.07;;;1.47;;
67278;SDS011;54193;53.746;10.058;2022-09-03T00:34:50;4.50;;;1.20;;
67278;SDS011;54193;53.746;10.058;2022-09-03T00:37:41;2.80;;;1.25;;
67278;SDS011;54193;53.746;10.058;2022-09-03T00:40:33;3.22;;;1.50;;
67278;SDS011;54193;53.746;10.058;2022-09-03T00:43:49;3.83;;;1.65;;
67278;SDS011;54193;53.746;10.058;2022-09-03T00:50:47;2.45;;;1.38;;
67278;SDS011;54193;53.746;10.058;2022-09-03T00:56:14;3.25;;;1.40;;
67278;SDS011;54193;53.746;10.058;2022-09-03T01:30:14;4.70;;;1.52;;
67278;SDS011;54193;53.746;10.058;2022-09-03T01:33:11;3.07;;;1.30;;
67278;SDS011;54193;53.746;10.058;2022-09-03T01:39:36;4.40;;;1.90;;
67278;SDS011;54193;53.746;10.058;2022-09-03T01:46:23;2.50;;;1.25;;
67278;SDS011;54193;53.746;10.058;2022-09-03T01:49:29;3.23;;;1.50;;
67278;SDS011;54193;53.746;10.058;2022-09-03T01:58:50;2.50;;;1.30;;
67278;SDS011;54193;53.746;10.058;2022-09-03T02:01:46;2.50;;;1.10;;
67278;SDS011;54193;53.746;10.058;2022-09-03T02:04:41;3.80;;;1.37;;
67278;SDS011;54193;53.746;10.058;2022-09-03T02:07:31;2.63;;;1.40;;
67278;SDS011;54193;53.746;10.058;2022-09-03T02:10:20;2.95;;;1.35;;
67278;SDS011;54193;53.746;10.058;2022-09-03T02:13:14;3.10;;;1.40;;
67278;SDS011;54193;53.746;10.058;2022-09-03T02:16:06;5.22;;;1.50;;
67278;SDS011;54193;53.746;10.058;2022-09-03T02:18:58;3.37;;;1.40;;
67278;SDS011;54193;53.746;10.058;2022-09-03T02:21:51;2.92;;;1.38;;
67278;SDS011;54193;53.746;10.058;2022-09-03T02:24:38;3.35;;;1.50;;
67278;SDS011;54193;53.746;10.058;2022-09-03T02:27:24;3.88;;;1.42;;
67278;SDS011;54193;53.746;10.058;2022-09-03T02:30:10;3.70;;;1.42;;
67278;SDS011;54193;53.746;10.058;2022-09-03T02:32:56;2.80;;;1.30;;
67278;SDS011;54193;53.746;10.058;2022-09-03T02:35:43;2.90;;;1.50;;
67278;SDS011;54193;53.746;10.058;2022-09-03T02:38:30;2.90;;;1.30;;
67278;SDS011;54193;53.746;10.058;2022-09-03T02:41:16;3.40;;;1.35;;
67278;SDS011;54193;53.746;10.058;2022-09-03T02:44:07;2.75;;;1.10;;
67278;SDS011;54193;53.746;10.058;2022-09-03T02:47:10;3.70;;;1.60;;
67278;SDS011;54193;53.746;10.058;2022-09-03T02:49:55;3.05;;;1.40;;
67278;SDS011;54193;53.746;10.058;2022-09-03T02:52:41;3.58;;;1.50;;
67278;SDS011;54193;53.746;10.058;2022-09-03T02:55:27;3.17;;;1.50;;
67278;SDS011;54193;53.746;10.058;2022-09-03T02:58:12;2.40;;;1.17;;
67278;SDS011;54193;53.746;10.058;2022-09-03T03:00:58;3.57;;;1.60;;
67278;SDS011;54193;53.746;10.058;2022-09-03T03:03:44;2.92;;;1.33;;
67278;SDS011;54193;53.746;10.058;2022-09-03T03:06:29;3.65;;;1.60;;
67278;SDS011;54193;53.746;10.058;2022-09-03T03:09:15;2.92;;;1.40;;
67278;SDS011;54193;53.746;10.058;2022-09-03T03:12:02;3.15;;;1.40;;
67278;SDS011;54193;53.746;10.058;2022-09-03T03:14:47;3.23;;;1.40;;
67278;SDS011;54193;53.746;10.058;2022-09-03T03:17:33;4.53;;;1.50;;
67278;SDS011;54193;53.746;10.058;2022-09-03T03:20:19;3.72;;;1.50;;
67278;SDS011;54193;53.746;10.058;2022-09-03T03:23:05;3.78;;;1.45;;
67278;SDS011;54193;53.746;10.058;2022-09-03T03:25:51;3.08;;;1.58;;
67278;SDS011;54193;53.746;10.058;2022-09-03T03:28:37;2.80;;;1.50;;
67278;SDS011;54193;53.746;10.058;2022-09-03T03:31:23;3.30;;;1.40;;
67278;SDS011;54193;53.746;10.058;2022-09-03T03:34:09;3.40;;;1.48;;
67278;SDS011;54193;53.746;10.058;2022-09-03T03:36:54;4.18;;;1.80;;
67278;SDS011;54193;53.746;10.058;2022-09-03T03:39:40;3.75;;;1.48;;
67278;SDS011;54193;53.746;10.058;2022-09-03T03:42:26;5.77;;;1.60;;
67278;SDS011;54193;53.746;10.058;2022-09-03T03:45:11;3.35;;;1.40;;
67278;SDS011;54193;53.746;10.058;2022-09-03T03:47:57;3.22;;;1.58;;
67278;SDS011;54193;53.746;10.058;2022-09-03T03:50:46;2.67;;;1.23;;
67278;SDS011;54193;53.746;10.058;2022-09-03T03:53:32;2.80;;;1.40;;
67278;SDS011;54193;53.746;10.058;2022-09-03T03:56:19;2.93;;;1.40;;
67278;SDS011;54193;53.746;10.058;2022-09-03T03:59:05;2.83;;;1.48;;
67278;SDS011;54193;53.746;10.058;2022-09-03T04:01:53;5.32;;;1.58;;
67278;SDS011;54193;53.746;10.058;2022-09-03T04:04:39;4.05;;;1.60;;
67278;SDS011;54193;53.746;10.058;2022-09-03T04:07:25;3.58;;;1.55;;
67278;SDS011;54193;53.746;10.058;2022-09-03T04:10:11;2.70;;;1.60;;
67278;SDS011;54193;53.746;10.058;2022-09-03T04:12:56;4.80;;;1.77;;
67278;SDS011;54193;53.746;10.058;2022-09-03T04:15:42;3.55;;;1.77;;
67278;SDS011;54193;53.746;10.058;2022-09-03T04:18:29;3.90;;;2.03;;
67278;SDS011;54193;53.746;10.058;2022-09-03T04:21:17;3.60;;;1.77;;
67278;SDS011;54193;53.746;10.058;2022-09-03T04:24:04;3.30;;;1.70;;
67278;SDS011;54193;53.746;10.058;2022-09-03T04:26:50;3.80;;;1.60;;
67278;SDS011;54193;53.746;10.058;2022-09-03T04:29:36;4.25;;;1.73;;
67278;SDS011;54193;53.746;10.058;2022-09-03T04:32:21;3.80;;;1.58;;
67278;SDS011;54193;53.746;10.058;2022-09-03T04:35:26;4.32;;;1.67;;
67278;SDS011;54193;53.746;10.058;2022-09-03T04:38:14;3.23;;;1.70;;
67278;SDS011;54193;53.746;10.058;2022-09-03T04:41:01;4.75;;;1.70;;
67278;SDS011;54193;53.746;10.058;2022-09-03T04:43:49;4.90;;;1.50;;
67278;SDS011;54193;53.746;10.058;2022-09-03T04:46:35;2.85;;;1.40;;
67278;SDS011;54193;53.746;10.058;2022-09-03T04:49:21;2.90;;;1.50;;
67278;SDS011;54193;53.746;10.058;2022-09-03T04:52:09;3.50;;;1.40;;
67278;SDS011;54193;53.746;10.058;2022-09-03T04:54:54;3.75;;;1.70;;
67278;SDS011;54193;53.746;10.058;2022-09-03T04:57:40;4.53;;;1.42;;
67278;SDS011;54193;53.746;10.058;2022-09-03T05:00:27;3.53;;;1.55;;
67278;SDS011;54193;53.746;10.058;2022-09-03T05:03:13;3.88;;;1.42;;
67278;SDS011;54193;53.746;10.058;2022-09-03T05:05:58;3.43;;;1.70;;
67278;SDS011;54193;53.746;10.058;2022-09-03T05:08:48;3.47;;;1.83;;
67278;SDS011;54193;53.746;10.058;2022-09-03T05:11:34;3.55;;;1.60;;
67278;SDS011;54193;53.746;10.058;2022-09-03T05:14:20;3.95;;;1.38;;
67278;SDS011;54193;53.746;10.058;2022-09-03T05:17:07;3.17;;;1.38;;
67278;SDS011;54193;53.746;10.058;2022-09-03T05:19:52;3.23;;;1.40;;
67278;SDS011;54193;53.746;10.058;2022-09-03T05:22:38;4.70;;;1.40;;
67278;SDS011;54193;53.746;10.058;2022-09-03T05:25:24;3.45;;;1.50;;
67278;SDS011;54193;53.746;10.058;2022-09-03T05:28:09;3.15;;;1.30;;
67278;SDS011;54193;53.746;10.058;2022-09-03T05:33:44;2.57;;;1.20;;
67278;SDS011;54193;53.746;10.058;2022-09-03T05:36:33;3.72;;;1.40;;
67278;SDS011;54193;53.746;10.058;2022-09-03T05:39:20;2.90;;;1.60;;
67278;SDS011;54193;53.746;10.058;2022-09-03T05:42:06;3.63;;;1.42;;
67278;SDS011;54193;53.746;10.058;2022-09-03T05:44:51;4.18;;;2.10;;
67278;SDS011;54193;53.746;10.058;2022-09-03T05:47:37;3.30;;;1.47;;
67278;SDS011;54193;53.746;10.058;2022-09-03T05:50:23;3.75;;;1.30;;
67278;SDS011;54193;53.746;10.058;2022-09-03T05:53:09;3.55;;;1.52;;
67278;SDS011;54193;53.746;10.058;2022-09-03T05:55:58;3.10;;;1.40;;
67278;SDS011;54193;53.746;10.058;2022-09-03T05:58:46;3.20;;;1.30;;
67278;SDS011;54193;53.746;10.058;2022-09-03T06:01:40;5.40;;;1.30;;
67278;SDS011;54193;53.746;10.058;2022-09-03T06:04:37;3.22;;;1.43;;
67278;SDS011;54193;53.746;10.058;2022-09-03T06:07:23;3.35;;;1.50;;
67278;SDS011;54193;53.746;10.058;2022-09-03T06:10:11;2.47;;;1.17;;
67278;SDS011;54193;53.746;10.058;2022-09-03T06:12:57;4.55;;;1.30;;
67278;SDS011;54193;53.746;10.058;2022-09-03T06:15:48;4.38;;;1.60;;
67278;SDS011;54193;53.746;10.058;2022-09-03T06:18:34;2.72;;;1.30;;
67278;SDS011;54193;53.746;10.058;2022-09-03T06:21:20;2.90;;;1.25;;
67278;SDS011;54193;53.746;10.058;2022-09-03T06:24:07;4.00;;;1.43;;
67278;SDS011;54193;53.746;10.058;2022-09-03T06:26:55;2.90;;;1.40;;
67278;SDS011;54193;53.746;10.058;2022-09-03T06:29:41;2.53;;;0.95;;
67278;SDS011;54193;53.746;10.058;2022-09-03T06:32:27;2.85;;;1.50;;
67278;SDS011;54193;53.746;10.058;2022-09-03T06:35:13;3.90;;;1.40;;
67278;SDS011;54193;53.746;10.058;2022-09-03T06:38:00;2.87;;;1.33;;
67278;SDS011;54193;53.746;10.058;2022-09-03T06:40:50;2.97;;;1.20;;
67278;SDS011;54193;53.746;10.058;2022-09-03T06:43:38;3.40;;;1.40;;
67278;SDS011;54193;53.746;10.058;2022-09-03T06:46:25;3.25;;;1.27;;
67278;SDS011;54193;53.746;10.058;2022-09-03T06:49:11;4.05;;;1.50;;
67278;SDS011;54193;53.746;10.058;2022-09-03T06:51:57;2.57;;;1.27;;
67278;SDS011;54193;53.746;10.058;2022-09-03T06:54:42;3.30;;;1.33;;
67278;SDS011;54193;53.746;10.058;2022-09-03T06:57:28;3.22;;;1.48;;
67278;SDS011;54193;53.746;10.058;2022-09-03T07:00:14;3.38;;;1.40;;
67278;SDS011;54193;53.746;10.058;2022-09-03T07:03:00;2.92;;;1.38;;
67278;SDS011;54193;53.746;10.058;2022-09-03T07:05:47;5.73;;;1.70;;
67278;SDS011;54193;53.746;10.058;2022-09-03T07:08:33;3.60;;;1.25;;
67278;SDS011;54193;53.746;10.058;2022-09-03T07:11:20;4.13;;;1.42;;
67278;SDS011;54193;53.746;10.058;2022-09-03T07:14:10;3.65;;;1.50;;
67278;SDS011;54193;53.746;10.058;2022-09-03T07:16:56;3.03;;;1.50;;
67278;SDS011;54193;53.746;10.058;2022-09-03T07:19:41;2.93;;;1.50;;
67278;SDS011;54193;53.746;10.058;2022-09-03T07:22:27;2.97;;;1.60;;
67278;SDS011;54193;53.746;10.058;2022-09-03T07:25:12;4.00;;;1.60;;
67278;SDS011;54193;53.746;10.058;2022-09-03T07:27:58;4.75;;;1.60;;
67278;SDS011;54193;53.746;10.058;2022-09-03T07:30:44;3.15;;;1.52;;
67278;SDS011;54193;53.746;10.058;2022-09-03T07:33:30;3.00;;;1.40;;
67278;SDS011;54193;53.746;10.058;2022-09-03T07:36:16;3.40;;;1.10;;
67278;SDS011;54193;53.746;10.058;2022-09-03T07:39:02;3.03;;;1.50;;
67278;SDS011;54193;53.746;10.058;2022-09-03T07:41:48;4.32;;;1.80;;
67278;SDS011;54193;53.746;10.058;2022-09-03T07:44:34;3.17;;;1.67;;
67278;SDS011;54193;53.746;10.058;2022-09-03T07:47:20;2.78;;;1.58;;
67278;SDS011;54193;53.746;10.058;2022-09-03T07:50:06;2.78;;;1.45;;
67278;SDS011;54193;53.746;10.058;2022-09-03T07:52:55;7.20;;;1.70;;
67278;SDS011;54193;53.746;10.058;2022-09-03T07:55:42;3.13;;;1.60;;
67278;SDS011;54193;53.746;10.058;2022-09-03T07:58:29;3.30;;;1.60;;
67278;SDS011;54193;53.746;10.058;2022-09-03T08:01:17;4.47;;;1.80;;
67278;SDS011;54193;53.746;10.058;2022-09-03T08:04:04;5.63;;;1.77;;
67278;SDS011;54193;53.746;10.058;2022-09-03T08:06:50;8.33;;;1.70;;
67278;SDS011;54193;53.746;10.058;2022-09-03T08:09:39;4.30;;;1.60;;
67278;SDS011;54193;53.746;10.058;2022-09-03T08:12:25;3.42;;;1.50;;
67278;SDS011;54193;53.746;10.058;2022-09-03T08:15:11;3.42;;;1.50;;
67278;SDS011;54193;53.746;10.058;2022-09-03T08:17:57;2.90;;;1.70;;
67278;SDS011;54193;53.746;10.058;2022-09-03T08:20:44;3.50;;;1.53;;
67278;SDS011;54193;53.746;10.058;2022-09-03T08:23:31;3.75;;;1.70;;
67278;SDS011;54193;53.746;10.058;2022-09-03T08:26:17;3.00;;;1.67;;
67278;SDS011;54193;53.746;10.058;2022-09-03T08:29:05;3.25;;;1.90;;
67278;SDS011;54193;53.746;10.058;2022-09-03T08:31:51;3.35;;;1.58;;
67278;SDS011;54193;53.746;10.058;2022-09-03T08:34:36;4.13;;;1.90;;
67278;SDS011;54193;53.746;10.058;2022-09-03T08:37:22;4.88;;;1.80;;
67278;SDS011;54193;53.746;10.058;2022-09-03T08:40:11;4.30;;;1.58;;
67278;SDS011;54193;53.746;10.058;2022-09-03T08:43:02;4.28;;;1.73;;
67278;SDS011;54193;53.746;10.058;2022-09-03T08:45:52;4.18;;;1.70;;
67278;SDS011;54193;53.746;10.058;2022-09-03T08:48:38;4.17;;;1.77;;
67278;SDS011;54193;53.746;10.058;2022-09-03T08:51:23;3.58;;;1.90;;
67278;SDS011;54193;53.746;10.058;2022-09-03T08:54:12;3.47;;;2.03;;
67278;SDS011;54193;53.746;10.058;2022-09-03T08:56:59;3.67;;;1.92;;
67278;SDS011;54193;53.746;10.058;2022-09-03T08:59:52;4.00;;;2.00;;
67278;SDS011;54193;53.746;10.058;2022-09-03T09:06:18;3.53;;;1.90;;
67278;SDS011;54193;53.746;10.058;2022-09-03T09:11:57;3.63;;;1.88;;
67278;SDS011;54193;53.746;10.058;2022-09-03T09:15:04;3.88;;;1.58;;
67278;SDS011;54193;53.746;10.058;2022-09-03T09:18:30;3.87;;;1.90;;
67278;SDS011;54193;53.746;10.058;2022-09-03T09:24:35;3.20;;;1.70;;
67278;SDS011;54193;53.746;10.058;2022-09-03T09:27:26;4.05;;;1.83;;
67278;SDS011;54193;53.746;10.058;2022-09-03T09:30:12;3.35;;;1.80;;
67278;SDS011;54193;53.746;10.058;2022-09-03T09:33:01;4.97;;;1.73;;
67278;SDS011;54193;53.746;10.058;2022-09-03T09:35:46;2.80;;;1.70;;
67278;SDS011;54193;53.746;10.058;2022-09-03T09:38:34;3.33;;;1.70;;
67278;SDS011;54193;53.746;10.058;2022-09-03T09:41:21;2.80;;;1.73;;
67278;SDS011;54193;53.746;10.058;2022-09-03T09:44:16;3.05;;;1.70;;
67278;SDS011;54193;53.746;10.058;2022-09-03T09:49:57;4.55;;;1.70;;
67278;SDS011;54193;53.746;10.058;2022-09-03T09:52:44;3.85;;;1.52;;
67278;SDS011;54193;53.746;10.058;2022-09-03T09:55:30;4.20;;;1.70;;
67278;SDS011;54193;53.746;10.058;2022-09-03T09:58:20;2.90;;;1.42;;
67278;SDS011;54193;53.746;10.058;2022-09-03T10:01:20;3.50;;;1.80;;
67278;SDS011;54193;53.746;10.058;2022-09-03T10:04:11;3.33;;;1.83;;
67278;SDS011;54193;53.746;10.058;2022-09-03T10:07:21;2.80;;;1.60;;
67278;SDS011;54193;53.746;10.058;2022-09-03T10:13:01;3.28;;;1.65;;
67278;SDS011;54193;53.746;10.058;2022-09-03T10:15:58;3.33;;;1.60;;
67278;SDS011;54193;53.746;10.058;2022-09-03T10:19:12;3.67;;;1.40;;
67278;SDS011;54193;53.746;10.058;2022-09-03T10:22:06;3.00;;;1.60;;
67278;SDS011;54193;53.746;10.058;2022-09-03T10:24:57;2.88;;;1.75;;
67278;SDS011;54193;53.746;10.058;2022-09-03T10:27:45;3.85;;;1.30;;
67278;SDS011;54193;53.746;10.058;2022-09-03T10:30:30;3.27;;;1.70;;
67278;SDS011;54193;53.746;10.058;2022-09-03T10:33:34;3.67;;;1.73;;
67278;SDS011;54193;53.746;10.058;2022-09-03T10:36:38;4.43;;;1.80;;
67278;SDS011;54193;53.746;10.058;2022-09-03T10:45:41;3.57;;;1.73;;
67278;SDS011;54193;53.746;10.058;2022-09-03T10:49:15;2.97;;;1.50;;
67278;SDS011;54193;53.746;10.058;2022-09-03T10:52:12;4.75;;;2.03;;
67278;SDS011;54193;53.746;10.058;2022-09-03T10:55:10;4.38;;;1.65;;
67278;SDS011;54193;53.746;10.058;2022-09-03T11:01:32;5.63;;;1.60;;
67278;SDS011;54193;53.746;10.058;2022-09-03T11:04:38;2.60;;;1.27;;
67278;SDS011;54193;53.746;10.058;2022-09-03T11:07:33;3.15;;;1.70;;
67278;SDS011;54193;53.746;10.058;2022-09-03T11:10:43;3.42;;;1.52;;
67278;SDS011;54193;53.746;10.058;2022-09-03T11:13:44;3.45;;;1.45;;
67278;SDS011;54193;53.746;10.058;2022-09-03T11:16:42;3.47;;;1.60;;
67278;SDS011;54193;53.746;10.058;2022-09-03T11:19:37;4.75;;;1.70;;
67278;SDS011;54193;53.746;10.058;2022-09-03T11:22:32;3.53;;;1.42;;
67278;SDS011;54193;53.746;10.058;2022-09-03T11:25:19;3.55;;;1.40;;
67278;SDS011;54193;53.746;10.058;2022-09-03T11:28:22;2.80;;;1.27;;
67278;SDS011;54193;53.746;10.058;2022-09-03T11:34:52;4.18;;;1.77;;
67278;SDS011;54193;53.746;10.058;2022-09-03T11:37:45;3.63;;;1.33;;
67278;SDS011;54193;53.746;10.058;2022-09-03T11:40:41;2.80;;;1.50;;
67278;SDS011;54193;53.746;10.058;2022-09-03T11:44:17;2.60;;;1.50;;
67278;SDS011;54193;53.746;10.058;2022-09-03T11:47:13;4.10;;;1.63;;
67278;SDS011;54193;53.746;10.058;2022-09-03T11:50:07;2.70;;;1.33;;
67278;SDS011;54193;53.746;10.058;2022-09-03T11:59:05;3.05;;;1.30;;
67278;SDS011;54193;53.746;10.058;2022-09-03T12:05:13;5.53;;;1.58;;
67278;SDS011;54193;53.746;10.058;2022-09-03T12:08:09;3.97;;;1.33;;
67278;SDS011;54193;53.746;10.058;2022-09-03T12:20:13;3.92;;;1.40;;
67278;SDS011;54193;53.746;10.058;2022-09-03T12:23:00;3.00;;;1.52;;
67278;SDS011;54193;53.746;10.058;2022-09-03T12:25:47;4.22;;;1.60;;
67278;SDS011;54193;53.746;10.058;2022-09-03T12:28:37;3.33;;;1.50;;
67278;SDS011;54193;53.746;10.058;2022-09-03T12:31:24;3.67;;;1.50;;
67278;SDS011;54193;53.746;10.058;2022-09-03T12:34:15;2.92;;;1.30;;
67278;SDS011;54193;53.746;10.058;2022-09-03T12:37:02;2.88;;;1.50;;
67278;SDS011;54193;53.746;10.058;2022-09-03T12:39:54;5.18;;;1.55;;
67278;SDS011;54193;53.746;10.058;2022-09-03T12:42:41;3.90;;;1.60;;
67278;SDS011;54193;53.746;10.058;2022-09-03T12:45:26;2.70;;;1.63;;
67278;SDS011;54193;53.746;10.058;2022-09-03T12:48:13;2.80;;;1.50;;
67278;SDS011;54193;53.746;10.058;2022-09-03T12:51:00;3.00;;;1.58;;
67278;SDS011;54193;53.746;10.058;2022-09-03T12:53:47;3.80;;;1.50;;
67278;SDS011;54193;53.746;10.058;2022-09-03T12:56:35;3.45;;;1.30;;
67278;SDS011;54193;53.746;10.058;2022-09-03T12:59:22;3.57;;;1.40;;
67278;SDS011;54193;53.746;10.058;2022-09-03T13:02:14;2.83;;;1.50;;
67278;SDS011;54193;53.746;10.058;2022-09-03T13:05:04;2.95;;;1.52;;
67278;SDS011;54193;53.746;10.058;2022-09-03T13:07:54;2.80;;;1.50;;
67278;SDS011;54193;53.746;10.058;2022-09-03T13:10:41;2.78;;;1.52;;
67278;SDS011;54193;53.746;10.058;2022-09-03T13:13:31;3.27;;;1.33;;
67278;SDS011;54193;53.746;10.058;2022-09-03T13:22:35;2.90;;;1.50;;
67278;SDS011;54193;53.746;10.058;2022-09-03T13:25:41;2.20;;;1.13;;
67278;SDS011;54193;53.746;10.058;2022-09-03T13:28:37;2.40;;;1.10;;
67278;SDS011;54193;53.746;10.058;2022-09-03T13:31:34;2.38;;;1.08;;
67278;SDS011;54193;53.746;10.058;2022-09-03T13:40:46;2.90;;;1.50;;
67278;SDS011;54193;53.746;10.058;2022-09-03T13:43:51;3.58;;;1.30;;
67278;SDS011;54193;53.746;10.058;2022-09-03T13:46:47;3.30;;;1.40;;
67278;SDS011;54193;53.746;10.058;2022-09-03T13:53:07;3.92;;;1.50;;
67278;SDS011;54193;53.746;10.058;2022-09-03T13:56:46;2.77;;;1.20;;
67278;SDS011;54193;53.746;10.058;2022-09-03T14:05:08;3.85;;;1.10;;
67278;SDS011;54193;53.746;10.058;2022-09-03T14:08:03;3.25;;;1.15;;
67278;SDS011;54193;53.746;10.058;2022-09-03T14:10:59;2.63;;;1.40;;
67278;SDS011;54193;53.746;10.058;2022-09-03T14:14:37;4.85;;;1.52;;
67278;SDS011;54193;53.746;10.058;2022-09-03T14:23:20;4.60;;;1.50;;
67278;SDS011;54193;53.746;10.058;2022-09-03T14:26:20;3.43;;;1.27;;
67278;SDS011;54193;53.746;10.058;2022-09-03T14:41:27;4.13;;;1.40;;
67278;SDS011;54193;53.746;10.058;2022-09-03T14:44:35;3.28;;;1.20;;
67278;SDS011;54193;53.746;10.058;2022-09-03T15:03:20;3.33;;;1.45;;
67278;SDS011;54193;53.746;10.058;2022-09-03T15:06:32;3.58;;;1.25;;
67278;SDS011;54193;53.746;10.058;2022-09-03T15:09:52;2.63;;;1.40;;
67278;SDS011;54193;53.746;10.058;2022-09-03T15:19:38;5.28;;;1.23;;
67278;SDS011;54193;53.746;10.058;2022-09-03T15:25:30;4.45;;;1.60;;
67278;SDS011;54193;53.746;10.058;2022-09-03T15:38:12;2.85;;;1.30;;
67278;SDS011;54193;53.746;10.058;2022-09-03T15:41:18;3.17;;;1.20;;
67278;SDS011;54193;53.746;10.058;2022-09-03T15:44:10;3.00;;;1.10;;
67278;SDS011;54193;53.746;10.058;2022-09-03T15:46:59;3.35;;;1.40;;
67278;SDS011;54193;53.746;10.058;2022-09-03T15:50:00;3.95;;;1.10;;
67278;SDS011;54193;53.746;10.058;2022-09-03T15:53:03;3.83;;;1.20;;
67278;SDS011;54193;53.746;10.058;2022-09-03T16:02:30;3.08;;;1.40;;
67278;SDS011;54193;53.746;10.058;2022-09-03T16:05:24;3.80;;;1.30;;
67278;SDS011;54193;53.746;10.058;2022-09-03T16:08:26;4.80;;;1.52;;
67278;SDS011;54193;53.746;10.058;2022-09-03T16:20:22;3.67;;;1.45;;
67278;SDS011;54193;53.746;10.058;2022-09-03T16:23:25;5.90;;;1.38;;
67278;SDS011;54193;53.746;10.058;2022-09-03T16:26:29;2.97;;;1.60;;
67278;SDS011;54193;53.746;10.058;2022-09-03T16:29:23;2.77;;;1.20;;
67278;SDS011;54193;53.746;10.058;2022-09-03T16:38:51;2.30;;;1.10;;
67278;SDS011;54193;53.746;10.058;2022-09-03T16:41:52;2.95;;;1.50;;
67278;SDS011;54193;53.746;10.058;2022-09-03T16:44:53;2.50;;;1.30;;
67278;SDS011;54193;53.746;10.058;2022-09-03T16:47:51;4.85;;;1.77;;
67278;SDS011;54193;53.746;10.058;2022-09-03T16:51:12;3.03;;;1.77;;
67278;SDS011;54193;53.746;10.058;2022-09-03T16:54:14;3.50;;;1.85;;
67278;SDS011;54193;53.746;10.058;2022-09-03T17:00:08;4.67;;;1.80;;
67278;SDS011;54193;53.746;10.058;2022-09-03T17:19:00;3.67;;;1.60;;
67278;SDS011;54193;53.746;10.058;2022-09-03T17:22:02;3.50;;;1.70;;
67278;SDS011;54193;53.746;10.058;2022-09-03T17:24:56;4.80;;;2.13;;
67278;SDS011;54193;53.746;10.058;2022-09-03T17:31:05;3.80;;;2.10;;
67278;SDS011;54193;53.746;10.058;2022-09-03T17:34:31;2.67;;;1.50;;
67278;SDS011;54193;53.746;10.058;2022-09-03T17:49:53;3.70;;;2.22;;
67278;SDS011;54193;53.746;10.058;2022-09-03T17:52:50;8.85;;;2.67;;
67278;SDS011;54193;53.746;10.058;2022-09-03T17:55:41;3.50;;;2.20;;
67278;SDS011;54193;53.746;10.058;2022-09-03T17:58:37;3.78;;;2.10;;
67278;SDS011;54193;53.746;10.058;2022-09-03T18:01:26;3.70;;;2.30;;
67278;SDS011;54193;53.746;10.058;2022-09-03T18:13:05;4.60;;;2.25;;
67278;SDS011;54193;53.746;10.058;2022-09-03T18:16:13;3.93;;;2.30;;
67278;SDS011;54193;53.746;10.058;2022-09-03T18:21:53;4.28;;;2.95;;
67278;SDS011;54193;53.746;10.058;2022-09-03T18:25:01;4.95;;;2.85;;
67278;SDS011;54193;53.746;10.058;2022-09-03T18:28:06;6.13;;;3.38;;
67278;SDS011;54193;53.746;10.058;2022-09-03T18:31:15;7.87;;;3.90;;
67278;SDS011;54193;53.746;10.058;2022-09-03T18:34:20;6.13;;;3.88;;
67278;SDS011;54193;53.746;10.058;2022-09-03T18:37:33;7.10;;;3.90;;
67278;SDS011;54193;53.746;10.058;2022-09-03T18:40:42;7.68;;;3.63;;
67278;SDS011;54193;53.746;10.058;2022-09-03T18:44:05;5.90;;;3.47;;
67278;SDS011;54193;53.746;10.058;2022-09-03T18:47:26;6.37;;;4.30;;
67278;SDS011;54193;53.746;10.058;2022-09-03T18:53:49;4.18;;;3.00;;
67278;SDS011;54193;53.746;10.058;2022-09-03T18:57:02;4.55;;;2.97;;
67278;SDS011;54193;53.746;10.058;2022-09-03T19:00:14;4.38;;;2.60;;
67278;SDS011;54193;53.746;10.058;2022-09-03T19:03:37;4.80;;;2.63;;
67278;SDS011;54193;53.746;10.058;2022-09-03T19:06:52;9.07;;;2.30;;
67278;SDS011;54193;53.746;10.058;2022-09-03T19:23:20;4.65;;;2.40;;
67278;SDS011;54193;53.746;10.058;2022-09-03T19:26:38;5.85;;;2.33;;
67278;SDS011;54193;53.746;10.058;2022-09-03T19:30:00;4.70;;;2.72;;
67278;SDS011;54193;53.746;10.058;2022-09-03T19:33:19;4.70;;;2.50;;
67278;SDS011;54193;53.746;10.058;2022-09-03T19:37:10;4.43;;;2.30;;
67278;SDS011;54193;53.746;10.058;2022-09-03T19:40:16;4.75;;;2.30;;
67278;SDS011;54193;53.746;10.058;2022-09-03T19:46:56;5.25;;;2.10;;
67278;SDS011;54193;53.746;10.058;2022-09-03T19:53:27;5.07;;;2.30;;
67278;SDS011;54193;53.746;10.058;2022-09-03T19:56:32;4.22;;;2.13;;
67278;SDS011;54193;53.746;10.058;2022-09-03T19:59:39;4.30;;;2.00;;
67278;SDS011;54193;53.746;10.058;2022-09-03T20:02:46;3.97;;;2.20;;
67278;SDS011;54193;53.746;10.058;2022-09-03T20:05:52;3.55;;;2.20;;
67278;SDS011;54193;53.746;10.058;2022-09-03T20:09:02;3.60;;;2.10;;
67278;SDS011;54193;53.746;10.058;2022-09-03T20:12:10;3.53;;;2.00;;
67278;SDS011;54193;53.746;10.058;2022-09-03T20:14:58;5.50;;;2.30;;
67278;SDS011;54193;53.746;10.058;2022-09-03T20:18:02;3.90;;;2.10;;
67278;SDS011;54193;53.746;10.058;2022-09-03T20:20:53;3.40;;;2.10;;
67278;SDS011;54193;53.746;10.058;2022-09-03T20:23:59;4.10;;;2.10;;
67278;SDS011;54193;53.746;10.058;2022-09-03T20:29:53;4.55;;;1.90;;
67278;SDS011;54193;53.746;10.058;2022-09-03T20:32:52;4.00;;;1.90;;
67278;SDS011;54193;53.746;10.058;2022-09-03T20:44:46;5.13;;;1.80;;
67278;SDS011;54193;53.746;10.058;2022-09-03T20:47:52;2.60;;;1.52;;
67278;SDS011;54193;53.746;10.058;2022-09-03T20:51:13;3.97;;;1.70;;
67278;SDS011;54193;53.746;10.058;2022-09-03T20:57:18;3.20;;;1.70;;
67278;SDS011;54193;53.746;10.058;2022-09-03T21:00:26;4.85;;;1.80;;
67278;SDS011;54193;53.746;10.058;2022-09-03T21:03:16;4.20;;;1.50;;
67278;SDS011;54193;53.746;10.058;2022-09-03T21:06:11;2.75;;;1.65;;
67278;SDS011;54193;53.746;10.058;2022-09-03T21:12:13;3.70;;;1.60;;
67278;SDS011;54193;53.746;10.058;2022-09-03T21:18:22;4.25;;;1.50;;
67278;SDS011;54193;53.746;10.058;2022-09-03T21:24:31;3.60;;;1.43;;
67278;SDS011;54193;53.746;10.058;2022-09-03T21:27:28;4.10;;;1.65;;
67278;SDS011;54193;53.746;10.058;2022-09-03T21:30:20;4.40;;;1.80;;
67278;SDS011;54193;53.746;10.058;2022-09-03T21:33:50;4.68;;;1.70;;
67278;SDS011;54193;53.746;10.058;2022-09-03T21:39:18;3.80;;;1.30;;
67278;SDS011;54193;53.746;10.058;2022-09-03T21:48:12;4.95;;;1.40;;
67278;SDS011;54193;53.746;10.058;2022-09-03T21:51:06;3.63;;;1.70;;
67278;SDS011;54193;53.746;10.058;2022-09-03T21:54:04;2.83;;;1.40;;
67278;SDS011;54193;53.746;10.058;2022-09-03T21:59:50;3.10;;;1.60;;
67278;SDS011;54193;53.746;10.058;2022-09-03T22:02:39;3.45;;;1.50;;
67278;SDS011;54193;53.746;10.058;2022-09-03T22:05:32;3.85;;;1.33;;
67278;SDS011;54193;53.746;10.058;2022-09-03T22:08:37;2.63;;;1.27;;
67278;SDS011;54193;53.746;10.058;2022-09-03T22:11:34;3.45;;;1.30;;
67278;SDS011;54193;53.746;10.058;2022-09-03T22:14:32;3.17;;;1.50;;
67278;SDS011;54193;53.746;10.058;2022-09-03T22:17:41;2.80;;;1.30;;
67278;SDS011;54193;53.746;10.058;2022-09-03T22:20:33;4.15;;;1.40;;
67278;SDS011;54193;53.746;10.058;2022-09-03T22:23:24;3.63;;;1.50;;
67278;SDS011;54193;53.746;10.058;2022-09-03T22:26:38;3.35;;;1.30;;